sensor_id;sensor_type;location;lat;lon;timestamp;temperature;humidity
16663;DHT22;8445;51.270;9.434;2024-03-22T00:01:18;7.00;72.40
16663;DHT22;8445;51.270;9.434;2024-03-22T00:03:45;7.00;72.20
16663;DHT22;8445;51.270;9.434;2024-03-22T00:06:11;7.00;72.40
16663;DHT22;8445;51.270;9.434;2024-03-22T00:08:39;7.00;72.50
16663;DHT22;8445;51.270;9.434;2024-03-22T00:11:05;7.00;72.50
16663;DHT22;8445;51.270;9.434;2024-03-22T00:13:31;7.00;72.20
16663;DHT22;8445;51.270;9.434;2024-03-22T00:15:57;7.00;72.30
16663;DHT22;8445;51.270;9.434;2024-03-22T00:18:23;7.00;72.30
16663;DHT22;8445;51.270;9.434;2024-03-22T00:20:51;7.00;72.20
16663;DHT22;8445;51.270;9.434;2024-03-22T00:23:20;7.00;72.40
16663;DHT22;8445;51.270;9.434;2024-03-22T00:25:50;7.00;72.50
16663;DHT22;8445;51.270;9.434;2024-03-22T00:28:19;7.00;72.60
16663;DHT22;8445;51.270;9.434;2024-03-22T00:30:49;7.00;72.50
16663;DHT22;8445;51.270;9.434;2024-03-22T00:33:21;7.00;72.30
16663;DHT22;8445;51.270;9.434;2024-03-22T00:35:54;7.00;72.40
16663;DHT22;8445;51.270;9.434;2024-03-22T00:38:25;7.00;72.40
16663;DHT22;8445;51.270;9.434;2024-03-22T00:40:57;7.00;72.50
16663;DHT22;8445;51.270;9.434;2024-03-22T00:43:35;7.00;72.60
16663;DHT22;8445;51.270;9.434;2024-03-22T00:46:04;7.00;72.60
16663;DHT22;8445;51.270;9.434;2024-03-22T00:48:31;7.00;72.60
16663;DHT22;8445;51.270;9.434;2024-03-22T00:50:58;7.00;72.50
16663;DHT22;8445;51.270;9.434;2024-03-22T00:53:25;7.00;72.60
16663;DHT22;8445;51.270;9.434;2024-03-22T00:55:54;7.00;72.80
16663;DHT22;8445;51.270;9.434;2024-03-22T00:58:22;7.00;72.80
16663;DHT22;8445;51.270;9.434;2024-03-22T01:00:51;6.90;72.60
16663;DHT22;8445;51.270;9.434;2024-03-22T01:03:18;6.90;72.80
16663;DHT22;8445;51.270;9.434;2024-03-22T01:05:46;7.00;72.90
16663;DHT22;8445;51.270;9.434;2024-03-22T01:08:14;7.00;73.20
16663;DHT22;8445;51.270;9.434;2024-03-22T01:10:41;7.00;73.10
16663;DHT22;8445;51.270;9.434;2024-03-22T01:13:09;7.00;73.20
16663;DHT22;8445;51.270;9.434;2024-03-22T01:15:36;7.00;73.30
16663;DHT22;8445;51.270;9.434;2024-03-22T01:18:04;7.00;73.40
16663;DHT22;8445;51.270;9.434;2024-03-22T01:20:31;7.00;73.40
16663;DHT22;8445;51.270;9.434;2024-03-22T01:23:00;7.10;73.50
16663;DHT22;8445;51.270;9.434;2024-03-22T01:25:27;7.10;73.50
16663;DHT22;8445;51.270;9.434;2024-03-22T01:27:55;7.20;73.70
16663;DHT22;8445;51.270;9.434;2024-03-22T01:30:23;7.20;73.70
16663;DHT22;8445;51.270;9.434;2024-03-22T01:32:50;7.20;73.70
16663;DHT22;8445;51.270;9.434;2024-03-22T01:35:17;7.20;73.70
16663;DHT22;8445;51.270;9.434;2024-03-22T01:37:44;7.20;73.60
16663;DHT22;8445;51.270;9.434;2024-03-22T01:40:12;7.20;73.70
16663;DHT22;8445;51.270;9.434;2024-03-22T01:42:47;7.20;73.70
16663;DHT22;8445;51.270;9.434;2024-03-22T01:45:19;7.20;73.60
16663;DHT22;8445;51.270;9.434;2024-03-22T01:47:47;7.20;73.70
16663;DHT22;8445;51.270;9.434;2024-03-22T01:50:14;7.20;73.70
16663;DHT22;8445;51.270;9.434;2024-03-22T01:52:41;7.20;73.70
16663;DHT22;8445;51.270;9.434;2024-03-22T01:55:08;7.20;73.70
16663;DHT22;8445;51.270;9.434;2024-03-22T01:57:36;7.20;73.80
16663;DHT22;8445;51.270;9.434;2024-03-22T02:00:06;7.20;73.70
16663;DHT22;8445;51.270;9.434;2024-03-22T02:02:40;7.20;73.60
16663;DHT22;8445;51.270;9.434;2024-03-22T02:05:17;7.20;73.50
16663;DHT22;8445;51.270;9.434;2024-03-22T02:07:47;7.20;73.70
16663;DHT22;8445;51.270;9.434;2024-03-22T02:10:14;7.20;74.00
16663;DHT22;8445;51.270;9.434;2024-03-22T02:12:41;7.10;73.90
16663;DHT22;8445;51.270;9.434;2024-03-22T02:15:10;7.00;73.80
16663;DHT22;8445;51.270;9.434;2024-03-22T02:17:40;7.00;74.00
16663;DHT22;8445;51.270;9.434;2024-03-22T02:20:09;7.00;74.10
16663;DHT22;8445;51.270;9.434;2024-03-22T02:22:41;6.90;74.00
16663;DHT22;8445;51.270;9.434;2024-03-22T02:25:07;6.90;74.00
16663;DHT22;8445;51.270;9.434;2024-03-22T02:27:34;6.80;73.90
16663;DHT22;8445;51.270;9.434;2024-03-22T02:30:00;6.80;74.00
16663;DHT22;8445;51.270;9.434;2024-03-22T02:32:27;6.80;73.90
16663;DHT22;8445;51.270;9.434;2024-03-22T02:34:53;6.70;73.70
16663;DHT22;8445;51.270;9.434;2024-03-22T02:37:19;6.70;73.50
16663;DHT22;8445;51.270;9.434;2024-03-22T02:39:45;6.60;73.40
16663;DHT22;8445;51.270;9.434;2024-03-22T02:42:11;6.60;73.40
16663;DHT22;8445;51.270;9.434;2024-03-22T02:44:37;6.50;73.30
16663;DHT22;8445;51.270;9.434;2024-03-22T02:47:09;6.50;73.30
16663;DHT22;8445;51.270;9.434;2024-03-22T02:49:38;6.40;73.50
16663;DHT22;8445;51.270;9.434;2024-03-22T02:52:04;6.40;73.50
16663;DHT22;8445;51.270;9.434;2024-03-22T02:54:30;6.30;73.30
16663;DHT22;8445;51.270;9.434;2024-03-22T02:56:56;6.30;73.30
16663;DHT22;8445;51.270;9.434;2024-03-22T02:59:26;6.20;73.30
16663;DHT22;8445;51.270;9.434;2024-03-22T03:01:52;6.20;73.20
16663;DHT22;8445;51.270;9.434;2024-03-22T03:04:18;6.10;73.20
16663;DHT22;8445;51.270;9.434;2024-03-22T03:06:44;6.10;73.20
16663;DHT22;8445;51.270;9.434;2024-03-22T03:09:14;6.00;73.20
16663;DHT22;8445;51.270;9.434;2024-03-22T03:11:40;6.00;73.30
16663;DHT22;8445;51.270;9.434;2024-03-22T03:14:06;6.00;73.80
16663;DHT22;8445;51.270;9.434;2024-03-22T03:16:32;6.00;73.90
16663;DHT22;8445;51.270;9.434;2024-03-22T03:19:01;6.00;74.50
16663;DHT22;8445;51.270;9.434;2024-03-22T03:21:27;6.00;74.20
16663;DHT22;8445;51.270;9.434;2024-03-22T03:23:53;6.00;74.40
16663;DHT22;8445;51.270;9.434;2024-03-22T03:26:19;6.00;74.50
16663;DHT22;8445;51.270;9.434;2024-03-22T03:28:45;6.00;74.40
16663;DHT22;8445;51.270;9.434;2024-03-22T03:31:11;6.00;74.30
16663;DHT22;8445;51.270;9.434;2024-03-22T03:33:37;6.00;74.20
16663;DHT22;8445;51.270;9.434;2024-03-22T03:36:03;6.00;74.10
16663;DHT22;8445;51.270;9.434;2024-03-22T03:38:29;6.00;74.10
16663;DHT22;8445;51.270;9.434;2024-03-22T03:40:55;6.00;74.10
16663;DHT22;8445;51.270;9.434;2024-03-22T03:43:21;6.00;74.10
16663;DHT22;8445;51.270;9.434;2024-03-22T03:45:47;6.00;74.30
16663;DHT22;8445;51.270;9.434;2024-03-22T03:48:13;6.00;74.70
16663;DHT22;8445;51.270;9.434;2024-03-22T03:50:39;6.10;75.00
16663;DHT22;8445;51.270;9.434;2024-03-22T03:53:05;6.10;75.30
16663;DHT22;8445;51.270;9.434;2024-03-22T03:55:31;6.10;75.40
16663;DHT22;8445;51.270;9.434;2024-03-22T03:57:57;6.20;75.20
16663;DHT22;8445;51.270;9.434;2024-03-22T04:00:23;6.20;75.20
16663;DHT22;8445;51.270;9.434;2024-03-22T04:02:51;6.30;75.30
16663;DHT22;8445;51.270;9.434;2024-03-22T04:05:17;6.30;75.50
16663;DHT22;8445;51.270;9.434;2024-03-22T04:07:50;6.40;75.50
16663;DHT22;8445;51.270;9.434;2024-03-22T04:10:16;6.40;75.50
16663;DHT22;8445;51.270;9.434;2024-03-22T04:12:42;6.50;75.40
16663;DHT22;8445;51.270;9.434;2024-03-22T04:15:10;6.50;75.40
16663;DHT22;8445;51.270;9.434;2024-03-22T04:17:36;6.60;75.50
16663;DHT22;8445;51.270;9.434;2024-03-22T04:20:02;6.60;75.80
16663;DHT22;8445;51.270;9.434;2024-03-22T04:22:29;6.70;75.70
16663;DHT22;8445;51.270;9.434;2024-03-22T04:24:55;6.70;75.80
16663;DHT22;8445;51.270;9.434;2024-03-22T04:27:21;6.70;75.70
16663;DHT22;8445;51.270;9.434;2024-03-22T04:29:50;6.70;75.70
16663;DHT22;8445;51.270;9.434;2024-03-22T04:32:15;6.70;75.80
16663;DHT22;8445;51.270;9.434;2024-03-22T04:34:42;6.70;75.80
16663;DHT22;8445;51.270;9.434;2024-03-22T04:37:08;6.70;76.00
16663;DHT22;8445;51.270;9.434;2024-03-22T04:39:35;6.70;75.90
16663;DHT22;8445;51.270;9.434;2024-03-22T04:42:02;6.70;75.80
16663;DHT22;8445;51.270;9.434;2024-03-22T04:44:29;6.80;75.90
16663;DHT22;8445;51.270;9.434;2024-03-22T04:46:55;6.70;75.90
16663;DHT22;8445;51.270;9.434;2024-03-22T04:49:20;6.80;76.00
16663;DHT22;8445;51.270;9.434;2024-03-22T04:51:47;6.80;76.20
16663;DHT22;8445;51.270;9.434;2024-03-22T04:54:15;6.80;76.10
16663;DHT22;8445;51.270;9.434;2024-03-22T04:56:41;6.80;76.10
16663;DHT22;8445;51.270;9.434;2024-03-22T04:59:07;6.90;76.20
16663;DHT22;8445;51.270;9.434;2024-03-22T05:01:33;6.90;76.50
16663;DHT22;8445;51.270;9.434;2024-03-22T05:03:59;6.90;76.60
16663;DHT22;8445;51.270;9.434;2024-03-22T05:06:25;6.90;76.60
16663;DHT22;8445;51.270;9.434;2024-03-22T05:08:50;6.90;76.80
16663;DHT22;8445;51.270;9.434;2024-03-22T05:11:17;7.00;76.80
16663;DHT22;8445;51.270;9.434;2024-03-22T05:13:43;7.00;76.70
16663;DHT22;8445;51.270;9.434;2024-03-22T05:16:09;7.00;76.80
16663;DHT22;8445;51.270;9.434;2024-03-22T05:18:36;7.00;76.90
16663;DHT22;8445;51.270;9.434;2024-03-22T05:21:02;7.00;77.20
16663;DHT22;8445;51.270;9.434;2024-03-22T05:23:29;7.00;77.30
16663;DHT22;8445;51.270;9.434;2024-03-22T05:25:54;7.00;77.30
16663;DHT22;8445;51.270;9.434;2024-03-22T05:28:20;7.10;77.50
16663;DHT22;8445;51.270;9.434;2024-03-22T05:30:47;7.10;77.40
16663;DHT22;8445;51.270;9.434;2024-03-22T05:33:13;7.20;77.50
16663;DHT22;8445;51.270;9.434;2024-03-22T05:35:40;7.20;77.80
16663;DHT22;8445;51.270;9.434;2024-03-22T05:38:07;7.30;77.80
16663;DHT22;8445;51.270;9.434;2024-03-22T05:40:36;7.40;77.90
16663;DHT22;8445;51.270;9.434;2024-03-22T05:43:04;7.40;78.20
16663;DHT22;8445;51.270;9.434;2024-03-22T05:45:30;7.50;78.20
16663;DHT22;8445;51.270;9.434;2024-03-22T05:47:56;7.50;78.40
16663;DHT22;8445;51.270;9.434;2024-03-22T05:50:22;7.50;78.20
16663;DHT22;8445;51.270;9.434;2024-03-22T05:52:49;7.60;78.20
16663;DHT22;8445;51.270;9.434;2024-03-22T05:55:15;7.60;78.40
16663;DHT22;8445;51.270;9.434;2024-03-22T05:57:41;7.80;78.40
16663;DHT22;8445;51.270;9.434;2024-03-22T06:00:07;7.80;78.50
16663;DHT22;8445;51.270;9.434;2024-03-22T06:02:34;7.90;78.40
16663;DHT22;8445;51.270;9.434;2024-03-22T06:05:03;8.00;78.20
16663;DHT22;8445;51.270;9.434;2024-03-22T06:07:32;8.00;78.20
16663;DHT22;8445;51.270;9.434;2024-03-22T06:10:08;8.10;78.10
16663;DHT22;8445;51.270;9.434;2024-03-22T06:12:37;8.20;77.90
16663;DHT22;8445;51.270;9.434;2024-03-22T06:15:04;8.20;77.70
16663;DHT22;8445;51.270;9.434;2024-03-22T06:17:32;8.30;77.50
16663;DHT22;8445;51.270;9.434;2024-03-22T06:19:59;8.40;77.60
16663;DHT22;8445;51.270;9.434;2024-03-22T06:22:26;8.40;77.50
16663;DHT22;8445;51.270;9.434;2024-03-22T06:24:52;8.50;77.30
16663;DHT22;8445;51.270;9.434;2024-03-22T06:27:19;8.50;77.30
16663;DHT22;8445;51.270;9.434;2024-03-22T06:29:45;8.60;77.20
16663;DHT22;8445;51.270;9.434;2024-03-22T06:32:11;8.60;77.10
16663;DHT22;8445;51.270;9.434;2024-03-22T06:34:37;8.80;77.00
16663;DHT22;8445;51.270;9.434;2024-03-22T06:37:04;8.80;76.90
16663;DHT22;8445;51.270;9.434;2024-03-22T06:39:30;8.90;76.80
16663;DHT22;8445;51.270;9.434;2024-03-22T06:41:55;8.90;76.60
16663;DHT22;8445;51.270;9.434;2024-03-22T06:44:22;9.00;76.60
16663;DHT22;8445;51.270;9.434;2024-03-22T06:47:17;9.00;76.40
16663;DHT22;8445;51.270;9.434;2024-03-22T06:49:46;9.10;76.20
16663;DHT22;8445;51.270;9.434;2024-03-22T06:52:12;9.20;76.00
16663;DHT22;8445;51.270;9.434;2024-03-22T06:54:38;9.20;75.90
16663;DHT22;8445;51.270;9.434;2024-03-22T06:57:04;9.40;75.70
16663;DHT22;8445;51.270;9.434;2024-03-22T06:59:30;9.40;75.60
16663;DHT22;8445;51.270;9.434;2024-03-22T07:01:56;9.50;75.40
16663;DHT22;8445;51.270;9.434;2024-03-22T07:04:22;9.70;75.20
16663;DHT22;8445;51.270;9.434;2024-03-22T07:06:48;9.80;74.90
16663;DHT22;8445;51.270;9.434;2024-03-22T07:09:14;10.00;74.70
16663;DHT22;8445;51.270;9.434;2024-03-22T07:11:41;10.10;74.40
16663;DHT22;8445;51.270;9.434;2024-03-22T07:14:08;10.30;74.10
16663;DHT22;8445;51.270;9.434;2024-03-22T07:16:34;10.50;73.80
16663;DHT22;8445;51.270;9.434;2024-03-22T07:19:08;10.60;73.30
16663;DHT22;8445;51.270;9.434;2024-03-22T07:21:34;10.80;73.20
16663;DHT22;8445;51.270;9.434;2024-03-22T07:24:00;10.90;72.80
16663;DHT22;8445;51.270;9.434;2024-03-22T07:26:26;11.10;72.00
16663;DHT22;8445;51.270;9.434;2024-03-22T07:28:53;11.10;71.40
16663;DHT22;8445;51.270;9.434;2024-03-22T07:31:19;11.20;71.20
16663;DHT22;8445;51.270;9.434;2024-03-22T07:33:47;11.30;71.00
16663;DHT22;8445;51.270;9.434;2024-03-22T07:36:15;11.40;70.80
16663;DHT22;8445;51.270;9.434;2024-03-22T07:38:45;11.40;70.50
16663;DHT22;8445;51.270;9.434;2024-03-22T07:41:11;11.50;70.70
16663;DHT22;8445;51.270;9.434;2024-03-22T07:43:37;11.60;70.70
16663;DHT22;8445;51.270;9.434;2024-03-22T07:46:03;11.80;70.60
16663;DHT22;8445;51.270;9.434;2024-03-22T07:48:29;12.00;70.40
16663;DHT22;8445;51.270;9.434;2024-03-22T07:50:57;12.30;70.20
16663;DHT22;8445;51.270;9.434;2024-03-22T07:53:24;12.50;69.70
16663;DHT22;8445;51.270;9.434;2024-03-22T07:55:50;12.80;69.10
16663;DHT22;8445;51.270;9.434;2024-03-22T07:58:26;13.00;68.40
16663;DHT22;8445;51.270;9.434;2024-03-22T08:00:52;13.20;67.60
16663;DHT22;8445;51.270;9.434;2024-03-22T08:03:18;13.30;67.20
16663;DHT22;8445;51.270;9.434;2024-03-22T08:05:44;13.40;66.70
16663;DHT22;8445;51.270;9.434;2024-03-22T08:08:10;13.50;66.40
16663;DHT22;8445;51.270;9.434;2024-03-22T08:10:36;13.50;66.10
16663;DHT22;8445;51.270;9.434;2024-03-22T08:13:02;13.50;66.00
16663;DHT22;8445;51.270;9.434;2024-03-22T08:15:28;13.50;65.80
16663;DHT22;8445;51.270;9.434;2024-03-22T08:17:54;13.60;66.00
16663;DHT22;8445;51.270;9.434;2024-03-22T08:20:23;13.70;65.80
16663;DHT22;8445;51.270;9.434;2024-03-22T08:22:49;13.90;66.20
16663;DHT22;8445;51.270;9.434;2024-03-22T08:25:15;14.00;65.90
16663;DHT22;8445;51.270;9.434;2024-03-22T08:27:46;14.20;65.20
16663;DHT22;8445;51.270;9.434;2024-03-22T08:30:13;14.40;65.30
16663;DHT22;8445;51.270;9.434;2024-03-22T08:32:39;14.50;64.60
16663;DHT22;8445;51.270;9.434;2024-03-22T08:35:05;14.60;64.40
16663;DHT22;8445;51.270;9.434;2024-03-22T08:37:33;14.80;64.20
16663;DHT22;8445;51.270;9.434;2024-03-22T08:39:59;14.80;63.70
16663;DHT22;8445;51.270;9.434;2024-03-22T08:42:26;14.90;63.00
16663;DHT22;8445;51.270;9.434;2024-03-22T08:44:53;15.00;63.00
16663;DHT22;8445;51.270;9.434;2024-03-22T08:47:20;15.00;63.20
16663;DHT22;8445;51.270;9.434;2024-03-22T08:49:47;15.00;62.90
16663;DHT22;8445;51.270;9.434;2024-03-22T08:52:13;15.20;63.00
16663;DHT22;8445;51.270;9.434;2024-03-22T08:54:39;15.20;62.80
16663;DHT22;8445;51.270;9.434;2024-03-22T08:57:09;15.40;62.80
16663;DHT22;8445;51.270;9.434;2024-03-22T08:59:35;15.50;62.50
16663;DHT22;8445;51.270;9.434;2024-03-22T09:02:03;15.60;61.70
16663;DHT22;8445;51.270;9.434;2024-03-22T09:04:29;15.60;61.50
16663;DHT22;8445;51.270;9.434;2024-03-22T09:06:55;15.70;61.80
16663;DHT22;8445;51.270;9.434;2024-03-22T09:09:21;15.80;61.60
16663;DHT22;8445;51.270;9.434;2024-03-22T09:11:47;15.80;61.60
16663;DHT22;8445;51.270;9.434;2024-03-22T09:14:14;15.80;61.20
16663;DHT22;8445;51.270;9.434;2024-03-22T09:16:39;15.90;60.50
16663;DHT22;8445;51.270;9.434;2024-03-22T09:19:06;15.80;59.90
16663;DHT22;8445;51.270;9.434;2024-03-22T09:21:32;15.80;60.30
16663;DHT22;8445;51.270;9.434;2024-03-22T09:23:58;15.70;60.30
16663;DHT22;8445;51.270;9.434;2024-03-22T09:26:23;15.60;60.20
16663;DHT22;8445;51.270;9.434;2024-03-22T09:28:49;15.50;60.40
16663;DHT22;8445;51.270;9.434;2024-03-22T09:31:16;15.50;60.80
16663;DHT22;8445;51.270;9.434;2024-03-22T09:33:43;15.50;61.10
16663;DHT22;8445;51.270;9.434;2024-03-22T09:36:09;15.50;60.60
16663;DHT22;8445;51.270;9.434;2024-03-22T09:38:40;15.60;60.90
16663;DHT22;8445;51.270;9.434;2024-03-22T09:41:14;15.60;61.20
16663;DHT22;8445;51.270;9.434;2024-03-22T09:43:45;15.60;61.20
16663;DHT22;8445;51.270;9.434;2024-03-22T09:46:18;15.70;61.30
16663;DHT22;8445;51.270;9.434;2024-03-22T09:48:48;15.80;60.90
16663;DHT22;8445;51.270;9.434;2024-03-22T09:51:21;15.80;60.90
16663;DHT22;8445;51.270;9.434;2024-03-22T09:53:55;15.80;60.50
16663;DHT22;8445;51.270;9.434;2024-03-22T09:56:26;16.00;60.80
16663;DHT22;8445;51.270;9.434;2024-03-22T09:59:01;16.00;60.90
16663;DHT22;8445;51.270;9.434;2024-03-22T10:01:33;16.20;60.70
16663;DHT22;8445;51.270;9.434;2024-03-22T10:04:09;16.40;60.60
16663;DHT22;8445;51.270;9.434;2024-03-22T10:06:39;16.60;60.10
16663;DHT22;8445;51.270;9.434;2024-03-22T10:09:05;16.80;59.60
16663;DHT22;8445;51.270;9.434;2024-03-22T10:11:31;17.00;59.30
16663;DHT22;8445;51.270;9.434;2024-03-22T10:14:00;17.20;59.10
16663;DHT22;8445;51.270;9.434;2024-03-22T10:16:26;17.40;59.10
16663;DHT22;8445;51.270;9.434;2024-03-22T10:18:52;17.50;59.30
16663;DHT22;8445;51.270;9.434;2024-03-22T10:21:19;17.70;58.60
16663;DHT22;8445;51.270;9.434;2024-03-22T10:23:46;17.80;57.90
16663;DHT22;8445;51.270;9.434;2024-03-22T10:26:14;18.00;57.80
16663;DHT22;8445;51.270;9.434;2024-03-22T10:28:46;18.20;57.70
16663;DHT22;8445;51.270;9.434;2024-03-22T10:31:13;18.40;57.40
16663;DHT22;8445;51.270;9.434;2024-03-22T10:33:44;18.60;56.70
16663;DHT22;8445;51.270;9.434;2024-03-22T10:36:12;18.80;56.60
16663;DHT22;8445;51.270;9.434;2024-03-22T10:38:43;19.00;56.00
16663;DHT22;8445;51.270;9.434;2024-03-22T10:41:18;19.20;55.80
16663;DHT22;8445;51.270;9.434;2024-03-22T10:43:49;19.40;55.70
16663;DHT22;8445;51.270;9.434;2024-03-22T10:46:20;19.50;54.90
16663;DHT22;8445;51.270;9.434;2024-03-22T10:48:52;19.70;55.20
16663;DHT22;8445;51.270;9.434;2024-03-22T10:51:24;19.80;54.90
16663;DHT22;8445;51.270;9.434;2024-03-22T10:53:59;20.00;54.90
16663;DHT22;8445;51.270;9.434;2024-03-22T10:56:35;20.00;54.20
16663;DHT22;8445;51.270;9.434;2024-03-22T10:59:03;20.10;53.70
16663;DHT22;8445;51.270;9.434;2024-03-22T11:01:34;20.10;53.30
16663;DHT22;8445;51.270;9.434;2024-03-22T11:04:06;20.10;53.30
16663;DHT22;8445;51.270;9.434;2024-03-22T11:06:32;20.10;53.00
16663;DHT22;8445;51.270;9.434;2024-03-22T11:09:00;20.20;53.60
16663;DHT22;8445;51.270;9.434;2024-03-22T11:11:28;20.30;53.50
16663;DHT22;8445;51.270;9.434;2024-03-22T11:14:05;20.40;52.90
16663;DHT22;8445;51.270;9.434;2024-03-22T11:16:32;20.50;52.70
16663;DHT22;8445;51.270;9.434;2024-03-22T11:18:58;20.60;52.00
16663;DHT22;8445;51.270;9.434;2024-03-22T11:21:24;20.60;52.10
16663;DHT22;8445;51.270;9.434;2024-03-22T11:23:50;20.60;52.00
16663;DHT22;8445;51.270;9.434;2024-03-22T11:26:16;20.70;52.00
16663;DHT22;8445;51.270;9.434;2024-03-22T11:28:42;20.70;51.80
16663;DHT22;8445;51.270;9.434;2024-03-22T11:31:09;20.80;51.80
16663;DHT22;8445;51.270;9.434;2024-03-22T11:33:35;20.80;51.20
16663;DHT22;8445;51.270;9.434;2024-03-22T11:36:05;20.80;51.00
16663;DHT22;8445;51.270;9.434;2024-03-22T11:38:34;20.80;51.50
16663;DHT22;8445;51.270;9.434;2024-03-22T11:41:01;20.80;51.60
16663;DHT22;8445;51.270;9.434;2024-03-22T11:43:30;20.80;51.10
16663;DHT22;8445;51.270;9.434;2024-03-22T11:45:56;20.80;51.40
16663;DHT22;8445;51.270;9.434;2024-03-22T11:48:24;20.80;51.10
16663;DHT22;8445;51.270;9.434;2024-03-22T11:50:51;20.90;50.50
16663;DHT22;8445;51.270;9.434;2024-03-22T11:53:22;20.80;50.60
16663;DHT22;8445;51.270;9.434;2024-03-22T11:55:50;20.80;50.50
16663;DHT22;8445;51.270;9.434;2024-03-22T11:58:18;20.70;50.50
16663;DHT22;8445;51.270;9.434;2024-03-22T12:00:45;20.70;50.80
16663;DHT22;8445;51.270;9.434;2024-03-22T12:03:12;20.60;50.90
16663;DHT22;8445;51.270;9.434;2024-03-22T12:05:40;20.50;50.40
16663;DHT22;8445;51.270;9.434;2024-03-22T12:08:09;20.50;50.70
16663;DHT22;8445;51.270;9.434;2024-03-22T12:10:36;20.40;50.70
16663;DHT22;8445;51.270;9.434;2024-03-22T12:13:04;20.30;50.70
16663;DHT22;8445;51.270;9.434;2024-03-22T12:15:31;20.30;50.90
16663;DHT22;8445;51.270;9.434;2024-03-22T12:17:58;20.40;51.10
16663;DHT22;8445;51.270;9.434;2024-03-22T12:20:27;20.50;50.90
16663;DHT22;8445;51.270;9.434;2024-03-22T12:22:53;20.50;50.40
16663;DHT22;8445;51.270;9.434;2024-03-22T12:25:20;20.60;50.40
16663;DHT22;8445;51.270;9.434;2024-03-22T12:27:46;20.60;50.30
16663;DHT22;8445;51.270;9.434;2024-03-22T12:30:16;20.70;50.50
16663;DHT22;8445;51.270;9.434;2024-03-22T12:32:43;20.80;50.50
16663;DHT22;8445;51.270;9.434;2024-03-22T12:35:09;20.80;50.30
16663;DHT22;8445;51.270;9.434;2024-03-22T12:37:35;20.90;50.20
16663;DHT22;8445;51.270;9.434;2024-03-22T12:40:02;21.00;50.00
16663;DHT22;8445;51.270;9.434;2024-03-22T12:42:28;21.10;49.70
16663;DHT22;8445;51.270;9.434;2024-03-22T12:44:54;21.10;49.70
16663;DHT22;8445;51.270;9.434;2024-03-22T12:47:20;21.10;49.80
16663;DHT22;8445;51.270;9.434;2024-03-22T12:49:46;21.10;49.70
16663;DHT22;8445;51.270;9.434;2024-03-22T12:52:12;21.10;49.50
16663;DHT22;8445;51.270;9.434;2024-03-22T12:54:38;21.10;49.10
16663;DHT22;8445;51.270;9.434;2024-03-22T12:57:04;21.10;49.10
16663;DHT22;8445;51.270;9.434;2024-03-22T12:59:30;21.00;49.50
16663;DHT22;8445;51.270;9.434;2024-03-22T13:01:56;21.10;50.00
16663;DHT22;8445;51.270;9.434;2024-03-22T13:04:22;21.10;49.50
16663;DHT22;8445;51.270;9.434;2024-03-22T13:06:48;21.10;48.90
16663;DHT22;8445;51.270;9.434;2024-03-22T13:09:14;21.10;48.70
16663;DHT22;8445;51.270;9.434;2024-03-22T13:11:41;21.10;48.90
16663;DHT22;8445;51.270;9.434;2024-03-22T13:14:07;21.10;49.00
16663;DHT22;8445;51.270;9.434;2024-03-22T13:16:33;21.10;48.70
16663;DHT22;8445;51.270;9.434;2024-03-22T13:18:59;21.10;48.70
16663;DHT22;8445;51.270;9.434;2024-03-22T13:21:25;21.10;48.90
16663;DHT22;8445;51.270;9.434;2024-03-22T13:23:52;21.00;48.80
16663;DHT22;8445;51.270;9.434;2024-03-22T13:26:19;21.00;48.90
16663;DHT22;8445;51.270;9.434;2024-03-22T13:28:47;21.00;49.10
16663;DHT22;8445;51.270;9.434;2024-03-22T13:31:13;21.00;49.10
16663;DHT22;8445;51.270;9.434;2024-03-22T13:33:38;21.00;49.20
16663;DHT22;8445;51.270;9.434;2024-03-22T13:36:04;20.90;48.90
16663;DHT22;8445;51.270;9.434;2024-03-22T13:38:30;20.90;48.90
16663;DHT22;8445;51.270;9.434;2024-03-22T13:40:57;20.90;49.00
16663;DHT22;8445;51.270;9.434;2024-03-22T13:43:27;20.80;47.80
16663;DHT22;8445;51.270;9.434;2024-03-22T13:45:54;20.70;46.80
16663;DHT22;8445;51.270;9.434;2024-03-22T13:48:21;20.60;46.20
16663;DHT22;8445;51.270;9.434;2024-03-22T13:50:55;20.40;46.20
16663;DHT22;8445;51.270;9.434;2024-03-22T13:53:22;20.20;45.70
16663;DHT22;8445;51.270;9.434;2024-03-22T13:55:49;20.00;45.80
16663;DHT22;8445;51.270;9.434;2024-03-22T13:58:16;19.70;45.90
16663;DHT22;8445;51.270;9.434;2024-03-22T14:00:47;19.40;46.20
16663;DHT22;8445;51.270;9.434;2024-03-22T14:03:13;19.20;46.40
16663;DHT22;8445;51.270;9.434;2024-03-22T14:05:43;18.90;46.70
16663;DHT22;8445;51.270;9.434;2024-03-22T14:08:09;18.60;46.70
16663;DHT22;8445;51.270;9.434;2024-03-22T14:10:36;18.40;46.90
16663;DHT22;8445;51.270;9.434;2024-03-22T14:13:03;18.20;46.90
16663;DHT22;8445;51.270;9.434;2024-03-22T14:15:33;18.00;47.30
16663;DHT22;8445;51.270;9.434;2024-03-22T14:18:01;18.00;47.70
16663;DHT22;8445;51.270;9.434;2024-03-22T14:20:28;18.00;47.80
16663;DHT22;8445;51.270;9.434;2024-03-22T14:22:55;18.00;47.90
16663;DHT22;8445;51.270;9.434;2024-03-22T14:25:21;18.10;47.90
16663;DHT22;8445;51.270;9.434;2024-03-22T14:27:47;18.20;47.90
16663;DHT22;8445;51.270;9.434;2024-03-22T14:30:14;18.30;47.80
16663;DHT22;8445;51.270;9.434;2024-03-22T14:32:41;18.50;47.40
16663;DHT22;8445;51.270;9.434;2024-03-22T14:35:10;18.60;47.30
16663;DHT22;8445;51.270;9.434;2024-03-22T14:37:37;18.60;47.30
16663;DHT22;8445;51.270;9.434;2024-03-22T14:40:03;18.70;47.30
16663;DHT22;8445;51.270;9.434;2024-03-22T14:42:30;18.80;47.10
16663;DHT22;8445;51.270;9.434;2024-03-22T14:44:57;18.80;46.70
16663;DHT22;8445;51.270;9.434;2024-03-22T14:47:22;18.80;46.30
16663;DHT22;8445;51.270;9.434;2024-03-22T14:49:51;18.70;46.50
16663;DHT22;8445;51.270;9.434;2024-03-22T14:52:17;18.60;46.70
16663;DHT22;8445;51.270;9.434;2024-03-22T14:54:44;18.50;47.00
16663;DHT22;8445;51.270;9.434;2024-03-22T14:57:10;18.50;47.20
16663;DHT22;8445;51.270;9.434;2024-03-22T14:59:36;18.50;47.40
16663;DHT22;8445;51.270;9.434;2024-03-22T15:02:02;18.60;47.30
16663;DHT22;8445;51.270;9.434;2024-03-22T15:04:28;18.60;47.10
16663;DHT22;8445;51.270;9.434;2024-03-22T15:06:54;18.60;47.00
16663;DHT22;8445;51.270;9.434;2024-03-22T15:09:20;18.50;47.00
16663;DHT22;8445;51.270;9.434;2024-03-22T15:11:46;18.40;46.80
16663;DHT22;8445;51.270;9.434;2024-03-22T15:14:13;18.30;46.90
16663;DHT22;8445;51.270;9.434;2024-03-22T15:16:39;18.20;47.20
16663;DHT22;8445;51.270;9.434;2024-03-22T15:19:08;18.10;47.30
16663;DHT22;8445;51.270;9.434;2024-03-22T15:21:36;18.00;47.40
16663;DHT22;8445;51.270;9.434;2024-03-22T15:24:03;17.80;47.50
16663;DHT22;8445;51.270;9.434;2024-03-22T15:26:29;17.80;47.60
16663;DHT22;8445;51.270;9.434;2024-03-22T15:28:55;17.70;47.70
16663;DHT22;8445;51.270;9.434;2024-03-22T15:31:23;17.60;47.90
16663;DHT22;8445;51.270;9.434;2024-03-22T15:33:49;17.50;48.00
16663;DHT22;8445;51.270;9.434;2024-03-22T15:36:15;17.50;48.20
16663;DHT22;8445;51.270;9.434;2024-03-22T15:38:41;17.50;48.30
16663;DHT22;8445;51.270;9.434;2024-03-22T15:41:08;17.50;48.50
16663;DHT22;8445;51.270;9.434;2024-03-22T15:43:36;17.50;48.50
16663;DHT22;8445;51.270;9.434;2024-03-22T15:46:02;17.50;48.50
16663;DHT22;8445;51.270;9.434;2024-03-22T15:48:28;17.50;48.50
16663;DHT22;8445;51.270;9.434;2024-03-22T15:50:56;17.50;48.40
16663;DHT22;8445;51.270;9.434;2024-03-22T15:53:22;17.60;48.40